Time;durP1;ratioP1;P1;durP2;ratioP2;P2;SDS_P1;SDS_P2;PMS_P1;PMS_P2;Temp;Humidity;BMP_temperature;BMP_pressure;BME280_temperature;BME280_humidity;BME280_pressure;Samples;Min_cycle;Max_cycle;Signal;HPM_P1;HPM_P2
2023/01/03 00:01:48;;;;;;;;;;;;;;;2.89;100;102623.8;;;;-76
2023/01/03 00:06:47;;;;;;;;;;;;;;;2.89;100;102627.3;;;;-76
2023/01/03 00:16:47;;;;;;;;;;;;;;;2.82;100;102618.9;;;;-77
2023/01/03 00:21:46;;;;;;;;;;;;;;;2.81;100;102621.8;;;;-76
2023/01/03 00:26:47;;;;;;;;;;;;;;;2.78;100;102625.7;;;;-76
2023/01/03 00:26:56;;;;;;;3.5;1.2;;;;;;;;;;;;;-75
2023/01/03 00:31:47;;;;;;;;;;;;;;;2.74;100;102635.8;;;;-75
2023/01/03 00:36:46;;;;;;;;;;;;;;;2.71;100;102639;;;;-76
2023/01/03 00:41:47;;;;;;;;;;;;;;;2.71;100;102641.5;;;;-74
2023/01/03 00:46:47;;;;;;;;;;;;;;;2.68;100;102648;;;;-76
2023/01/03 00:51:47;;;;;;;;;;;;;;;2.66;100;102651.1;;;;-76
2023/01/03 00:56:47;;;;;;;;;;;;;;;2.63;100;102645.6;;;;-76
2023/01/03 00:56:56;;;;;;;2.1;1;;;;;;;;;;;;;-76
2023/01/03 01:01:48;;;;;;;;;;;;;;;2.61;100;102646.3;;;;-76
2023/01/03 01:06:49;;;;;;;;;;;;;;;2.61;100;102641;;;;-75
2023/01/03 01:11:46;;;;;;;;;;;;;;;2.52;100;102641.9;;;;-76
2023/01/03 01:16:46;;;;;;;;;;;;;;;2.57;100;102642.3;;;;-75
2023/01/03 01:21:47;;;;;;;;;;;;;;;2.51;100;102646;;;;-72
2023/01/03 01:26:49;;;;;;;;;;;;;;;2.49;100;102655.5;;;;-72
2023/01/03 01:26:58;;;;;;;3.3;1.2;;;;;;;;;;;;;-72
2023/01/03 01:31:47;;;;;;;;;;;;;;;2.47;100;102659.3;;;;-72
2023/01/03 01:36:47;;;;;;;;;;;;;;;2.38;100;102668;;;;-72
2023/01/03 01:46:47;;;;;;;;;;;;;;;2.32;100;102674.2;;;;-73
2023/01/03 01:51:47;;;;;;;;;;;;;;;2.3;100;102676.1;;;;-73
2023/01/03 01:56:49;;;;;;;;;;;;;;;2.23;100;102681.7;;;;-73
2023/01/03 01:56:59;;;;;;;2.6;1.3;;;;;;;;;;;;;-73
2023/01/03 02:01:48;;;;;;;;;;;;;;;2.21;100;102687.7;;;;-75
2023/01/03 02:06:47;;;;;;;;;;;;;;;2.17;100;102687.5;;;;-71
2023/01/03 02:13:04;;;;;;;;;;;;;;;2.14;100;102689.3;;;;-73
2023/01/03 02:16:52;;;;;;;;;;;;;;;2.06;100;102686.9;;;;-74
2023/01/03 02:22:04;;;;;;;;;;;;;;;2.05;100;102686.8;;;;-73
2023/01/03 02:27:01;;;;;;;;;;;;;;;2.04;100;102687.8;;;;-72
2023/01/03 02:27:18;;;;;;;2.7;1.2;;;;;;;;;;;;;-72
2023/01/03 02:31:49;;;;;;;;;;;;;;;2.02;100;102686.2;;;;-72
2023/01/03 02:36:52;;;;;;;;;;;;;;;2.01;100;102685.5;;;;-76
2023/01/03 02:41:48;;;;;;;;;;;;;;;1.96;100;102683.6;;;;-75
2023/01/03 02:46:50;;;;;;;;;;;;;;;1.94;100;102681.4;;;;-76
2023/01/03 02:51:49;;;;;;;;;;;;;;;1.88;100;102686.9;;;;-76
2023/01/03 02:56:48;;;;;;;;;;;;;;;1.85;100;102684.8;;;;-75
2023/01/03 02:57:00;;;;;;;4.5;1.3;;;;;;;;;;;;;-75
2023/01/03 03:01:48;;;;;;;;;;;;;;;1.88;100;102680.8;;;;-76
2023/01/03 03:06:50;;;;;;;;;;;;;;;1.89;100;102669.5;;;;-75
2023/01/03 03:16:52;;;;;;;;;;;;;;;1.9;100;102663.4;;;;-76
2023/01/03 03:26:47;;;;;;;;;;;;;;;1.93;100;102666.9;;;;-75
2023/01/03 03:26:57;;;;;;;5.1;1.5;;;;;;;;;;;;;-75
2023/01/03 03:31:48;;;;;;;;;;;;;;;1.92;100;102663.2;;;;-76
2023/01/03 03:36:50;;;;;;;;;;;;;;;1.93;100;102663;;;;-76
2023/01/03 03:46:51;;;;;;;;;;;;;;;1.9;100;102670.7;;;;-75
2023/01/03 03:51:48;;;;;;;;;;;;;;;1.92;100;102669.1;;;;-76
2023/01/03 03:56:49;;;;;;;;;;;;;;;1.94;100;102664.9;;;;-76
2023/01/03 03:57:01;;;;;;;4.9;2;;;;;;;;;;;;;-76
2023/01/03 04:01:48;;;;;;;;;;;;;;;1.92;100;102675.1;;;;-76
2023/01/03 04:06:48;;;;;;;;;;;;;;;1.89;100;102665.1;;;;-76
2023/01/03 04:11:46;;;;;;;;;;;;;;;1.88;100;102666.5;;;;-75
2023/01/03 04:16:47;;;;;;;;;;;;;;;1.89;100;102662;;;;-76
2023/01/03 04:21:47;;;;;;;;;;;;;;;1.86;100;102672;;;;-76
2023/01/03 04:26:46;;;;;;;;;;;;;;;1.84;100;102669.4;;;;-76
2023/01/03 04:26:56;;;;;;;6.3;2.6;;;;;;;;;;;;;-76
2023/01/03 04:31:46;;;;;;;;;;;;;;;1.85;100;102668.1;;;;-75
2023/01/03 04:36:47;;;;;;;;;;;;;;;1.82;100;102665;;;;-72
2023/01/03 04:41:46;;;;;;;;;;;;;;;1.82;100;102667;;;;-72
2023/01/03 04:46:47;;;;;;;;;;;;;;;1.81;100;102665.8;;;;-72
2023/01/03 04:51:46;;;;;;;;;;;;;;;1.85;100;102663.5;;;;-71
2023/01/03 04:56:46;;;;;;;;;;;;;;;1.79;100;102661.5;;;;-72
2023/01/03 04:56:56;;;;;;;6.4;3.1;;;;;;;;;;;;;-72
2023/01/03 05:01:50;;;;;;;;;;;;;;;1.76;100;102670.3;;;;-72
2023/01/03 05:06:47;;;;;;;;;;;;;;;1.8;100;102676.1;;;;-73
2023/01/03 05:11:46;;;;;;;;;;;;;;;1.78;100;102671;;;;-72
2023/01/03 05:16:46;;;;;;;;;;;;;;;1.78;100;102671.5;;;;-72
2023/01/03 05:26:47;;;;;;;;;;;;;;;1.74;100;102677.6;;;;-73
2023/01/03 05:26:56;;;;;;;7.9;3.9;;;;;;;;;;;;;-73
2023/01/03 05:31:47;;;;;;;;;;;;;;;1.73;100;102684.8;;;;-73
2023/01/03 05:36:46;;;;;;;;;;;;;;;1.68;100;102683.2;;;;-72
2023/01/03 05:46:47;;;;;;;;;;;;;;;1.74;100;102673.1;;;;-73
2023/01/03 05:51:46;;;;;;;;;;;;;;;1.78;100;102661;;;;-74
2023/01/03 05:56:47;;;;;;;;;;;;;;;1.86;100;102665.4;;;;-73
2023/01/03 05:56:56;;;;;;;10.1;4.9;;;;;;;;;;;;;-73
2023/01/03 06:01:47;;;;;;;;;;;;;;;1.9;100;102673.5;;;;-72
2023/01/03 06:06:47;;;;;;;;;;;;;;;1.94;100;102673.3;;;;-72
2023/01/03 06:11:46;;;;;;;;;;;;;;;2;100;102679;;;;-72
2023/01/03 06:21:46;;;;;;;;;;;;;;;2.07;100;102669.3;;;;-72
2023/01/03 06:26:49;;;;;;;;;;;;;;;2.12;100;102672.1;;;;-73
2023/01/03 06:26:58;;;;;;;12.3;6;;;;;;;;;;;;;-73
2023/01/03 06:31:46;;;;;;;;;;;;;;;2.17;100;102673.9;;;;-73
2023/01/03 06:36:47;;;;;;;;;;;;;;;2.19;100;102670;;;;-73
2023/01/03 06:41:46;;;;;;;;;;;;;;;2.22;100;102673.4;;;;-73
2023/01/03 06:56:46;;;;;;;;;;;;;;;2.38;100;102663.6;;;;-72
2023/01/03 06:56:56;;;;;;;15.1;7.5;;;;;;;;;;;;;-72
2023/01/03 07:01:47;;;;;;;;;;;;;;;2.42;100;102658.7;;;;-72
2023/01/03 07:06:47;;;;;;;;;;;;;;;2.45;100;102658.6;;;;-74
2023/01/03 07:11:48;;;;;;;;;;;;;;;2.49;100;102664.3;;;;-73
2023/01/03 07:16:47;;;;;;;;;;;;;;;2.53;100;102662.5;;;;-73
2023/01/03 07:21:47;;;;;;;;;;;;;;;2.56;100;102664.5;;;;-73
2023/01/03 07:26:52;;;;;;;;;;;;;;;2.64;100;102667.1;;;;-73
2023/01/03 07:27:01;;;;;;;19;9;;;;;;;;;;;;;-73
2023/01/03 07:31:50;;;;;;;;;;;;;;;2.69;100;102662.8;;;;-73
2023/01/03 07:36:46;;;;;;;;;;;;;;;2.75;100;102660.5;;;;-72
2023/01/03 07:46:53;;;;;;;;;;;;;;;2.84;100;102663.7;;;;-73
2023/01/03 07:51:47;;;;;;;;;;;;;;;2.88;100;102654.9;;;;-77
2023/01/03 07:56:46;;;;;;;23;9.9;;;;;;;;;;;;;-77
2023/01/03 07:56:55;;;;;;;;;;;;;;;2.94;100;102652.9;;;;-77
2023/01/03 08:01:47;;;;;;;;;;;;;;;2.98;100;102656.5;;;;-73
2023/01/03 08:06:47;;;;;;;;;;;;;;;3.02;100;102646.8;;;;-72
2023/01/03 08:16:46;;;;;;;;;;;;;;;3.12;100;102649.9;;;;-72
2023/01/03 08:21:46;;;;;;;;;;;;;;;3.12;100;102647.4;;;;-72
2023/01/03 08:26:46;;;;;;;19.3;9;;;;;;;;;;;;;-72
2023/01/03 08:26:55;;;;;;;;;;;;;;;3.11;100;102654.1;;;;-72
2023/01/03 08:31:48;;;;;;;;;;;;;;;3.1;100;102659.5;;;;-74
2023/01/03 08:36:48;;;;;;;;;;;;;;;3.12;100;102658.8;;;;-72
2023/01/03 08:41:48;;;;;;;;;;;;;;;3.08;100;102653;;;;-73
2023/01/03 08:46:50;;;;;;;;;;;;;;;3.1;100;102654.9;;;;-73
2023/01/03 08:51:46;;;;;;;;;;;;;;;3.13;100;102644.3;;;;-72
2023/01/03 08:56:45;;;;;;;22;9.6;;;;;;;;;;;;;-73
2023/01/03 08:56:55;;;;;;;;;;;;;;;3.19;100;102647.9;;;;-74
2023/01/03 09:01:46;;;;;;;;;;;;;;;3.22;100;102646.8;;;;-73
2023/01/03 09:06:47;;;;;;;;;;;;;;;3.23;100;102642.1;;;;-72
2023/01/03 09:11:46;;;;;;;;;;;;;;;3.3;100;102642.4;;;;-72
2023/01/03 09:16:46;;;;;;;;;;;;;;;3.35;100;102645.2;;;;-73
2023/01/03 09:21:46;;;;;;;;;;;;;;;3.43;100;102652;;;;-73
2023/01/03 09:26:45;;;;;;;18.6;8.2;;;;;;;;;;;;;-71
2023/01/03 09:27:02;;;;;;;;;;;;;;;3.5;100;102648.1;;;;-72
2023/01/03 09:31:46;;;;;;;;;;;;;;;3.65;100;102641.7;;;;-74
2023/01/03 09:36:46;;;;;;;;;;;;;;;3.71;100;102645.3;;;;-72
2023/01/03 09:43:11;;;;;;;;;;;;;;;3.91;100;102645.7;;;;-73
2023/01/03 09:46:46;;;;;;;;;;;;;;;4.1;100;102639.4;;;;-72
2023/01/03 10:06:53;;;;;;;;;;;;;;;4.49;100;102636.2;;;;-72
2023/01/03 10:11:52;;;;;;;;;;;;;;;4.6;100;102634.5;;;;-72
2023/01/03 10:16:52;;;;;;;;;;;;;;;4.69;100;102639.3;;;;-73
2023/01/03 10:21:52;;;;;;;;;;;;;;;4.76;100;102654.9;;;;-73
2023/01/03 10:26:44;;;;;;;20.5;10;;;;;;;;;;;;;-73
2023/01/03 10:27:05;;;;;;;;;;;;;;;4.84;100;102635;;;;-74
2023/01/03 10:31:54;;;;;;;;;;;;;;;4.95;100;102636.8;;;;-73
2023/01/03 10:36:46;;;;;;;;;;;;;;;5.01;100;102636.3;;;;-73
2023/01/03 10:41:51;;;;;;;;;;;;;;;5.1;100;102640.5;;;;-72
2023/01/03 10:46:52;;;;;;;;;;;;;;;5.14;100;102635.5;;;;-73
2023/01/03 10:51:53;;;;;;;;;;;;;;;5.22;100;102635.7;;;;-74
2023/01/03 10:56:44;;;;;;;21.6;10.4;;;;;;;;;;;;;-72
2023/01/03 10:56:53;;;;;;;;;;;;;;;5.29;100;102625.4;;;;-73
2023/01/03 11:01:56;;;;;;;;;;;;;;;5.39;100;102609.9;;;;-73
2023/01/03 11:06:58;;;;;;;;;;;;;;;5.49;100;102612.3;;;;-72
2023/01/03 11:11:46;;;;;;;;;;;;;;;5.58;100;102615.6;;;;-73
2023/01/03 11:16:46;;;;;;;;;;;;;;;5.69;100;102624.3;;;;-73
2023/01/03 11:21:48;;;;;;;;;;;;;;;5.66;100;102609.3;;;;-73
2023/01/03 11:26:49;;;;;;;27;11.2;;;;;;;;;;;;;-72
2023/01/03 11:27:04;;;;;;;;;;;;;;;5.73;100;102602.8;;;;-73
2023/01/03 11:31:52;;;;;;;;;;;;;;;5.74;100;102604.2;;;;-72
2023/01/03 11:36:51;;;;;;;;;;;;;;;5.8;100;102587.5;;;;-72
2023/01/03 11:41:58;;;;;;;;;;;;;;;5.85;100;102578.8;;;;-73
2023/01/03 11:46:58;;;;;;;;;;;;;;;5.9;100;102575.1;;;;-74
2023/01/03 11:51:51;;;;;;;;;;;;;;;5.99;100;102567.1;;;;-72
2023/01/03 11:56:45;;;;;;;27.4;11.9;;;;;;;;;;;;;-74
2023/01/03 11:56:55;;;;;;;;;;;;;;;6.03;100;102562.2;;;;-73
2023/01/03 12:01:57;;;;;;;;;;;;;;;6.07;100;102555.5;;;;-73
2023/01/03 12:06:53;;;;;;;;;;;;;;;6.13;100;102535.2;;;;-73
2023/01/03 12:12:02;;;;;;;;;;;;;;;6.16;100;102536.6;;;;-74
2023/01/03 12:16:48;;;;;;;;;;;;;;;6.23;100;102534.4;;;;-78
2023/01/03 12:21:50;;;;;;;;;;;;;;;6.29;100;102536;;;;-76
2023/01/03 12:26:47;;;;;;;27.7;11.7;;;;;;;;;;;;;-76
2023/01/03 12:27:00;;;;;;;;;;;;;;;6.3;100;102538.1;;;;-76
2023/01/03 12:31:49;;;;;;;;;;;;;;;6.37;100;102536;;;;-76
2023/01/03 12:36:51;;;;;;;;;;;;;;;6.4;100;102524.3;;;;-78
2023/01/03 12:41:49;;;;;;;;;;;;;;;6.41;100;102523.5;;;;-77
2023/01/03 12:46:49;;;;;;;;;;;;;;;6.44;100;102522;;;;-77
2023/01/03 12:51:46;;;;;;;;;;;;;;;6.47;100;102521.8;;;;-77
2023/01/03 12:56:55;;;;;;;20.8;10.4;;;;;;;;;;;;;-76
2023/01/03 12:57:12;;;;;;;;;;;;;;;6.54;100;102526;;;;-75
2023/01/03 13:01:52;;;;;;;;;;;;;;;6.58;100;102522.4;;;;-77
2023/01/03 13:06:52;;;;;;;;;;;;;;;6.61;100;102513.7;;;;-76
2023/01/03 13:11:51;;;;;;;;;;;;;;;6.64;100;102502.3;;;;-73
2023/01/03 13:16:50;;;;;;;;;;;;;;;6.68;100;102497.1;;;;-74
2023/01/03 13:22:06;;;;;;;;;;;;;;;6.69;100;102495.4;;;;-72
2023/01/03 13:26:53;;;;;;;22.2;9;;;;;;;;;;;;;-73
2023/01/03 13:27:14;;;;;;;;;;;;;;;6.7;100;102498.5;;;;-74
2023/01/03 13:31:46;;;;;;;;;;;;;;;6.74;100;102495.3;;;;-72
2023/01/03 13:36:57;;;;;;;;;;;;;;;6.78;100;102493.9;;;;-72
2023/01/03 13:41:46;;;;;;;;;;;;;;;6.81;100;102482.2;;;;-73
2023/01/03 13:46:46;;;;;;;;;;;;;;;6.83;100;102468.5;;;;-73
2023/01/03 13:51:53;;;;;;;;;;;;;;;6.88;100;102457.7;;;;-73
2023/01/03 13:56:55;;;;;;;16.5;8;;;;;;;;;;;;;-77
2023/01/03 13:57:06;;;;;;;;;;;;;;;6.87;100;102452.3;;;;-78
2023/01/03 14:01:54;;;;;;;;;;;;;;;6.9;100;102452.4;;;;-78
2023/01/03 14:06:58;;;;;;;;;;;;;;;6.92;100;102447.6;;;;-77
2023/01/03 14:12:02;;;;;;;;;;;;;;;6.9;100;102443.3;;;;-79
2023/01/03 14:16:52;;;;;;;;;;;;;;;6.87;100;102447.8;;;;-77
2023/01/03 14:21:52;;;;;;;;;;;;;;;6.86;100;102447.6;;;;-77
2023/01/03 14:26:44;;;;;;;13.9;7;;;;;;;;;;;;;-72
2023/01/03 14:26:53;;;;;;;;;;;;;;;6.86;100;102435;;;;-73
2023/01/03 14:31:49;;;;;;;;;;;;;;;6.84;100;102433.9;;;;-72
2023/01/03 14:36:51;;;;;;;;;;;;;;;6.83;100;102419.5;;;;-73
2023/01/03 14:41:50;;;;;;;;;;;;;;;6.84;100;102417.5;;;;-73
2023/01/03 14:46:52;;;;;;;;;;;;;;;6.83;100;102417.1;;;;-72
2023/01/03 14:51:46;;;;;;;;;;;;;;;6.82;100;102418.4;;;;-72
2023/01/03 14:56:47;;;;;;;11.9;5.9;;;;;;;;;;;;;-73
2023/01/03 14:56:57;;;;;;;;;;;;;;;6.81;100;102422.5;;;;-74
2023/01/03 15:01:47;;;;;;;;;;;;;;;6.79;100;102425.3;;;;-74
2023/01/03 15:06:56;;;;;;;;;;;;;;;6.78;100;102424.7;;;;-72
2023/01/03 15:16:49;;;;;;;;;;;;;;;6.76;100;102413;;;;-72
2023/01/03 15:21:46;;;;;;;;;;;;;;;6.74;100;102410.2;;;;-72
2023/01/03 15:26:45;;;;;;;12;5.4;;;;;;;;;;;;;-73
2023/01/03 15:26:55;;;;;;;;;;;;;;;6.71;100;102407.4;;;;-72
2023/01/03 15:31:53;;;;;;;;;;;;;;;6.68;100;102412.5;;;;-73
2023/01/03 15:36:48;;;;;;;;;;;;;;;6.66;100;102405.8;;;;-76
2023/01/03 15:46:49;;;;;;;;;;;;;;;6.58;100;102403.3;;;;-76
2023/01/03 15:51:46;;;;;;;;;;;;;;;6.57;100;102400.8;;;;-75
2023/01/03 15:56:47;;;;;;;9.6;5.3;;;;;;;;;;;;;-77
2023/01/03 15:56:57;;;;;;;;;;;;;;;6.56;100;102393.7;;;;-75
2023/01/03 16:01:46;;;;;;;;;;;;;;;6.57;100;102387.5;;;;-76
2023/01/03 16:06:51;;;;;;;;;;;;;;;6.57;100;102384.1;;;;-75
2023/01/03 16:11:47;;;;;;;;;;;;;;;6.59;100;102386.9;;;;-72
2023/01/03 16:16:48;;;;;;;;;;;;;;;6.6;100;102379.4;;;;-73
2023/01/03 16:21:49;;;;;;;;;;;;;;;6.6;100;102373.2;;;;-74
2023/01/03 16:26:45;;;;;;;11.2;5.7;;;;;;;;;;;;;-72
2023/01/03 16:26:55;;;;;;;;;;;;;;;6.61;100;102366.1;;;;-73
2023/01/03 16:31:47;;;;;;;;;;;;;;;6.61;100;102358.3;;;;-72
2023/01/03 16:36:46;;;;;;;;;;;;;;;6.62;100;102349;;;;-71
2023/01/03 16:42:11;;;;;;;;;;;;;;;6.62;100;102347.8;;;;-73
2023/01/03 16:46:47;;;;;;;;;;;;;;;6.65;100;102356.4;;;;-72
2023/01/03 16:51:49;;;;;;;;;;;;;;;6.65;100;102346.4;;;;-73
2023/01/03 16:56:45;;;;;;;9.5;5.1;;;;;;;;;;;;;-72
2023/01/03 16:56:55;;;;;;;;;;;;;;;6.66;100;102338.5;;;;-72
2023/01/03 17:01:49;;;;;;;;;;;;;;;6.65;100;102338;;;;-75
2023/01/03 17:06:47;;;;;;;;;;;;;;;6.67;100;102339.9;;;;-71
2023/01/03 17:11:47;;;;;;;;;;;;;;;6.67;100;102335.1;;;;-72
2023/01/03 17:16:46;;;;;;;;;;;;;;;6.66;100;102329.8;;;;-73
2023/01/03 17:21:47;;;;;;;;;;;;;;;6.65;100;102321.3;;;;-73
2023/01/03 17:26:45;;;;;;;13.7;5.3;;;;;;;;;;;;;-72
2023/01/03 17:27:00;;;;;;;;;;;;;;;6.64;100;102322.8;;;;-73
2023/01/03 17:31:46;;;;;;;;;;;;;;;6.64;100;102318.1;;;;-73
2023/01/03 17:36:46;;;;;;;;;;;;;;;6.65;100;102313.7;;;;-73
2023/01/03 17:51:47;;;;;;;;;;;;;;;6.68;100;102281.3;;;;-72
2023/01/03 17:56:46;;;;;;;11.3;4.5;;;;;;;;;;;;;-73
2023/01/03 17:56:58;;;;;;;;;;;;;;;6.69;100;102274.1;;;;-74
2023/01/03 18:01:46;;;;;;;;;;;;;;;6.68;100;102261.6;;;;-72
2023/01/03 18:06:46;;;;;;;;;;;;;;;6.67;100;102251.9;;;;-73
2023/01/03 18:11:46;;;;;;;;;;;;;;;6.66;100;102254.2;;;;-73
2023/01/03 18:16:46;;;;;;;;;;;;;;;6.66;100;102257.9;;;;-73
2023/01/03 18:21:46;;;;;;;;;;;;;;;6.69;100;102254.8;;;;-72
2023/01/03 18:26:47;;;;;;;9.5;4.3;;;;;;;;;;;;;-73
2023/01/03 18:26:57;;;;;;;;;;;;;;;6.69;100;102250.2;;;;-73
2023/01/03 18:31:47;;;;;;;;;;;;;;;6.7;100;102238.8;;;;-73
2023/01/03 18:36:48;;;;;;;;;;;;;;;6.72;100;102245.2;;;;-73
2023/01/03 18:41:46;;;;;;;;;;;;;;;6.74;100;102245.5;;;;-72
2023/01/03 18:46:47;;;;;;;;;;;;;;;6.76;100;102210.6;;;;-72
2023/01/03 18:51:47;;;;;;;;;;;;;;;6.78;100;102214.4;;;;-73
2023/01/03 18:56:46;;;;;;;11.9;4.7;;;;;;;;;;;;;-72
2023/01/03 18:56:55;;;;;;;;;;;;;;;6.8;100;102207.4;;;;-72
2023/01/03 19:01:46;;;;;;;;;;;;;;;6.82;100;102199.6;;;;-72
2023/01/03 19:06:48;;;;;;;;;;;;;;;6.83;100;102185.4;;;;-74
2023/01/03 19:11:46;;;;;;;;;;;;;;;6.84;100;102162.8;;;;-72
2023/01/03 19:16:46;;;;;;;;;;;;;;;6.85;100;102150.5;;;;-72
2023/01/03 19:21:48;;;;;;;;;;;;;;;6.84;100;102154.5;;;;-73
2023/01/03 19:26:51;;;;;;;;;;;;;;;6.84;100;102153.5;;;;-72
2023/01/03 19:27:09;;;;;;;15.6;4.8;;;;;;;;;;;;;-72
2023/01/03 19:31:48;;;;;;;;;;;;;;;6.83;100;102157.3;;;;-73
2023/01/03 19:36:47;;;;;;;;;;;;;;;6.82;100;102136.4;;;;-72
2023/01/03 19:46:47;;;;;;;;;;;;;;;6.86;100;102126.2;;;;-72
2023/01/03 19:51:46;;;;;;;;;;;;;;;6.88;100;102117;;;;-72
2023/01/03 19:56:47;;;;;;;;;;;;;;;6.88;100;102109.5;;;;-72
2023/01/03 19:56:58;;;;;;;12.3;4.2;;;;;;;;;;;;;-72
2023/01/03 20:01:46;;;;;;;;;;;;;;;6.91;100;102111.9;;;;-72
2023/01/03 20:06:46;;;;;;;;;;;;;;;6.91;100;102096.6;;;;-72
2023/01/03 20:11:47;;;;;;;;;;;;;;;6.92;100;102080.7;;;;-72
2023/01/03 20:16:46;;;;;;;;;;;;;;;6.94;100;102080.6;;;;-73
2023/01/03 20:21:46;;;;;;;;;;;;;;;6.95;100;102087.3;;;;-72
2023/01/03 20:26:46;;;;;;;;;;;;;;;6.98;100;102067.6;;;;-73
2023/01/03 20:26:56;;;;;;;15.2;4.2;;;;;;;;;;;;;-73
2023/01/03 20:31:46;;;;;;;;;;;;;;;6.98;100;102067.5;;;;-73
2023/01/03 20:36:48;;;;;;;;;;;;;;;6.98;100;102056.6;;;;-73
2023/01/03 20:41:46;;;;;;;;;;;;;;;7.01;100;102036.6;;;;-73
2023/01/03 20:46:46;;;;;;;;;;;;;;;7.04;100;102037.7;;;;-73
2023/01/03 20:51:46;;;;;;;;;;;;;;;7.05;100;102020.2;;;;-73
2023/01/03 20:56:47;;;;;;;;;;;;;;;7.07;100;102024.8;;;;-73
2023/01/03 20:56:56;;;;;;;12.1;4;;;;;;;;;;;;;-73
2023/01/03 21:01:47;;;;;;;;;;;;;;;7.07;100;102004.6;;;;-72
2023/01/03 21:06:47;;;;;;;;;;;;;;;7.1;100;102004;;;;-72
2023/01/03 21:11:46;;;;;;;;;;;;;;;7.13;100;101989.8;;;;-73
2023/01/03 21:16:47;;;;;;;;;;;;;;;7.15;100;101978.8;;;;-73
2023/01/03 21:21:47;;;;;;;;;;;;;;;7.18;100;101973.4;;;;-72
2023/01/03 21:26:46;;;;;;;;;;;;;;;7.19;100;101964.7;;;;-73
2023/01/03 21:26:57;;;;;;;8.5;3.2;;;;;;;;;;;;;-73
2023/01/03 21:31:49;;;;;;;;;;;;;;;7.22;100;101955;;;;-72
2023/01/03 21:36:46;;;;;;;;;;;;;;;7.25;100;101952.9;;;;-75
2023/01/03 21:46:46;;;;;;;;;;;;;;;7.29;100;101931.6;;;;-72
2023/01/03 21:51:47;;;;;;;;;;;;;;;7.3;100;101918.2;;;;-73
2023/01/03 21:56:49;;;;;;;;;;;;;;;7.33;100;101917.6;;;;-73
2023/01/03 21:56:58;;;;;;;8.9;3.2;;;;;;;;;;;;;-73
2023/01/03 22:06:48;;;;;;;;;;;;;;;7.4;100;101906;;;;-72
2023/01/03 22:11:46;;;;;;;;;;;;;;;7.44;100;101900.6;;;;-73
2023/01/03 22:16:46;;;;;;;;;;;;;;;7.47;100;101886.2;;;;-73
2023/01/03 22:21:46;;;;;;;;;;;;;;;7.5;100;101874.9;;;;-73
2023/01/03 22:26:46;;;;;;;;;;;;;;;7.54;100;101862.6;;;;-73
2023/01/03 22:26:55;;;;;;;10.2;3.1;;;;;;;;;;;;;-73
2023/01/03 22:31:47;;;;;;;;;;;;;;;7.57;100;101859.4;;;;-72
2023/01/03 22:36:46;;;;;;;;;;;;;;;7.59;100;101857.7;;;;-73
2023/01/03 22:41:46;;;;;;;;;;;;;;;7.63;100;101846.4;;;;-71
2023/01/03 22:46:46;;;;;;;;;;;;;;;7.62;100;101840.3;;;;-72
2023/01/03 22:51:46;;;;;;;;;;;;;;;7.61;100;101823.8;;;;-73
2023/01/03 22:56:46;;;;;;;;;;;;;;;7.63;100;101820.3;;;;-78
2023/01/03 22:56:57;;;;;;;8.1;2.8;;;;;;;;;;;;;-78
2023/01/03 23:01:46;;;;;;;;;;;;;;;7.59;100;101808;;;;-78
2023/01/03 23:06:46;;;;;;;;;;;;;;;7.6;100;101796.3;;;;-76
2023/01/03 23:16:46;;;;;;;;;;;;;;;7.59;100;101773.6;;;;-76
2023/01/03 23:21:47;;;;;;;;;;;;;;;7.58;100;101768.5;;;;-77
2023/01/03 23:26:46;;;;;;;;;;;;;;;7.57;100;101756.6;;;;-78
2023/01/03 23:26:56;;;;;;;6.1;3.1;;;;;;;;;;;;;-78
2023/01/03 23:31:46;;;;;;;;;;;;;;;7.58;100;101755.9;;;;-77
2023/01/03 23:36:46;;;;;;;;;;;;;;;7.58;100;101733.3;;;;-78
2023/01/03 23:41:49;;;;;;;;;;;;;;;7.59;100;101726.4;;;;-77
2023/01/03 23:46:46;;;;;;;;;;;;;;;7.61;100;101704.9;;;;-77
2023/01/03 23:51:46;;;;;;;;;;;;;;;7.62;100;101679.4;;;;-77
2023/01/03 23:56:46;;;;;;;;;;;;;;;7.63;100;101673.2;;;;-78
2023/01/03 23:56:55;;;;;;;7.1;2.9;;;;;;;;;;;;;-78
